This is the latest recevied weather packets stored in our database for station/object SV2JU-2. If no packets are shown the sender has not sent any weather packets the latest 10 day(s).
| Time | Temp. | Humidity | Pressure | Rain* | Wind** | Luminosity | Snow |
|---|---|---|---|---|---|---|---|
| 1777574071 | 11.67° C | 54% | 1017 hPa | 0 mm | - | - | - |
| 1777573321 | 11.67° C | 54% | 1017 hPa | 0 mm | - | - | - |
| 1777572570 | 11.67° C | 54% | 1017 hPa | 0 mm | - | - | - |
| 1777571821 | 11.67° C | 54% | 1017 hPa | 0 mm | - | - | - |
| 1777571071 | 11.67° C | 54% | 1017 hPa | 0.76 mm | - | - | - |
| 1777570321 | 11.67° C | 54% | 1017 hPa | 0.76 mm | - | - | - |
| 1777569570 | 11.67° C | 54% | 1017 hPa | 0.76 mm | - | - | - |
| 1777568821 | 11.67° C | 54% | 1017 hPa | 1.78 mm | - | - | - |
| 1777568070 | 11.67° C | 54% | 1017 hPa | 1.78 mm | - | - | - |
| 1777567321 | 11.67° C | 54% | 1016 hPa | 0.76 mm | - | - | - |
| 1777566570 | 11.67° C | 53% | 1016 hPa | 1.78 mm | - | - | - |
| 1777565821 | 11.67° C | 52% | 1015 hPa | 1.78 mm | - | - | - |
| 1777565070 | 11.67° C | 51% | 1016 hPa | 0.76 mm | - | - | - |
| 1777564321 | 11.67° C | 48% | 1016 hPa | 0.76 mm | - | - | - |
| 1777563570 | 12.22° C | 45% | 1016 hPa | 0.76 mm | - | - | - |
| 1777562070 | 13.33° C | 36% | 1016 hPa | 0 mm | - | - | - |
| 1777560570 | 15.56° C | 30% | 1016 hPa | 0 mm | - | - | - |
| 1777559821 | 16.67° C | 27% | 1016 hPa | 0 mm | - | - | - |
| 1777559070 | 17.78° C | 24% | 1015 hPa | 0 mm | - | - | - |
| 1777558320 | 18.89° C | 24% | 1014 hPa | 0 mm | - | - | - |
| 1777557570 | 19.44° C | 23% | 1014 hPa | 0 mm | - | - | - |
| 1777556822 | 20.56° C | 24% | 1014 hPa | 0 mm | - | - | - |
| 1777556687 | 20.56° C | 24% | 1014 hPa | 0 mm | - | - | - |
| 1777555937 | 20.56° C | 23% | 1014 hPa | 0 mm | - | - | - |
| 1777555186 | 21.11° C | 23% | 1014 hPa | 0 mm | - | - | - |
* Rain latest hour (hover to see other rain measurements)
** Current wind speed in m/s (hover to see current wind gust speed)